Time;durP1;ratioP1;P1;durP2;ratioP2;P2;SDS_P1;SDS_P2;PMS_P1;PMS_P2;Temp;Humidity;BMP_temperature;BMP_pressure;BME280_temperature;BME280_humidity;BME280_pressure;Samples;Min_cycle;Max_cycle;Signal;HPM_P1;HPM_P2
2022/07/29 00:01:16;;;;;;;7.90;7.10;;;;;;;;;;5078792;28;20476;-51
2022/07/29 00:03:45;;;;;;;7.67;6.87;;;;;;;;;;5082230;28;20440;-51
2022/07/29 00:06:13;;;;;;;6.70;6.10;;;;;;;;;;5073057;28;20795;-51
2022/07/29 00:08:42;;;;;;;8.90;8.03;;;;;;;;;;5081012;28;20770;-51
2022/07/29 00:11:12;;;;;;;6.80;6.20;;;;;;;;;;5034499;28;20876;-53
2022/07/29 00:13:38;;;;;;;10.57;8.90;;;;;;;;;;5063034;28;20429;-51
2022/07/29 00:16:05;;;;;;;7.20;6.50;;;;;;;;;;5062021;28;20437;-52
2022/07/29 00:18:39;;;;;;;7.47;6.77;;;;;;;;;;5038227;28;20603;-52
2022/07/29 00:21:06;;;;;;;7.10;6.40;;;;;;;;;;5063832;28;21093;-51
2022/07/29 00:23:36;;;;;;;7.90;7.10;;;;;;;;;;5047796;28;20433;-50
2022/07/29 00:26:07;;;;;;;7.17;6.47;;;;;;;;;;5066275;28;20513;-51
2022/07/29 00:28:53;;;;;;;7.60;6.20;;;;;;;;;;5057316;28;20433;-50
2022/07/29 00:31:24;;;;;;;6.77;6.17;;;;;;;;;;5074100;28;20428;-51
2022/07/29 00:33:51;;;;;;;6.67;6.07;;;;;;;;;;5052640;28;21028;-51
2022/07/29 00:36:20;;;;;;;7.27;5.93;;;;;;;;;;5068907;28;20429;-51
2022/07/29 00:38:49;;;;;;;7.47;6.77;;;;;;;;;;5063371;28;20438;-50
2022/07/29 00:41:17;;;;;;;6.30;5.80;;;;;;;;;;5025956;28;20491;-50
2022/07/29 00:43:43;;;;;;;6.63;5.83;;;;;;;;;;5081761;28;20428;-54
2022/07/29 00:46:10;;;;;;;6.67;6.07;;;;;;;;;;5060376;28;20450;-51
2022/07/29 00:48:37;;;;;;;7.57;5.90;;;;;;;;;;5063444;28;20520;-52
2022/07/29 00:51:03;;;;;;;6.13;5.63;;;;;;;;;;5058111;28;20456;-52
2022/07/29 00:53:30;;;;;;;5.73;5.23;;;;;;;;;;5063181;28;20448;-52
2022/07/29 00:55:56;;;;;;;6.57;5.67;;;;;;;;;;5044071;28;20447;-52
2022/07/29 00:58:23;;;;;;;6.30;5.70;;;;;;;;;;5079749;28;20990;-51
2022/07/29 01:00:50;;;;;;;5.70;5.20;;;;;;;;;;5046112;28;20486;-51
2022/07/29 01:03:17;;;;;;;6.47;5.90;;;;;;;;;;5080758;28;20512;-51
2022/07/29 01:05:43;;;;;;;6.37;5.40;;;;;;;;;;5059052;28;20523;-52
2022/07/29 01:08:09;;;;;;;5.33;4.83;;;;;;;;;;5068067;28;20452;-50
2022/07/29 01:10:36;;;;;;;5.60;4.80;;;;;;;;;;5031946;28;20448;-50
2022/07/29 01:13:03;;;;;;;5.90;5.30;;;;;;;;;;5084162;28;20475;-50
2022/07/29 01:15:29;;;;;;;6.10;5.23;;;;;;;;;;5076567;28;20481;-52
2022/07/29 01:18:03;;;;;;;6.00;5.50;;;;;;;;;;5042180;28;21610;-53
2022/07/29 01:20:38;;;;;;;5.50;5.00;;;;;;;;;;5058637;28;20479;-50
2022/07/29 01:23:08;;;;;;;5.03;4.63;;;;;;;;;;5067477;28;20790;-53
2022/07/29 01:25:45;;;;;;;6.00;5.40;;;;;;;;;;5073993;28;20430;-52
2022/07/29 01:28:17;;;;;;;6.20;5.60;;;;;;;;;;5048188;28;20778;-52
2022/07/29 01:30:43;;;;;;;5.70;5.20;;;;;;;;;;5059085;28;21119;-51
2022/07/29 01:33:11;;;;;;;5.70;5.20;;;;;;;;;;5063460;28;20421;-51
2022/07/29 01:35:39;;;;;;;6.00;5.50;;;;;;;;;;5029320;28;20453;-51
2022/07/29 01:38:09;;;;;;;6.30;5.60;;;;;;;;;;5063570;28;20434;-52
2022/07/29 01:40:38;;;;;;;5.20;4.70;;;;;;;;;;5071422;28;20573;-52
2022/07/29 01:43:07;;;;;;;4.87;4.47;;;;;;;;;;5088119;28;20416;-51
2022/07/29 01:45:41;;;;;;;6.93;5.73;;;;;;;;;;5058523;28;20465;-52
2022/07/29 01:48:11;;;;;;;6.37;5.43;;;;;;;;;;5066568;28;20651;-51
2022/07/29 01:50:39;;;;;;;4.70;4.30;;;;;;;;;;5040418;28;21021;-52
2022/07/29 01:53:06;;;;;;;5.50;5.07;;;;;;;;;;5056797;28;20968;-51
2022/07/29 01:55:32;;;;;;;5.97;5.20;;;;;;;;;;5058045;28;20421;-52
2022/07/29 01:57:59;;;;;;;8.43;6.20;;;;;;;;;;5078743;28;20483;-50
2022/07/29 02:00:26;;;;;;;4.97;4.47;;;;;;;;;;5054864;28;20484;-52
2022/07/29 02:02:52;;;;;;;5.77;4.60;;;;;;;;;;5054054;28;20436;-51
2022/07/29 02:05:22;;;;;;;5.23;4.77;;;;;;;;;;5073875;28;20471;-51
2022/07/29 02:07:49;;;;;;;4.73;4.33;;;;;;;;;;5052085;28;20472;-51
2022/07/29 02:10:15;;;;;;;6.23;5.63;;;;;;;;;;5028819;28;20472;-52
2022/07/29 02:12:42;;;;;;;4.30;4.00;;;;;;;;;;5059071;28;20776;-50
2022/07/29 02:15:16;;;;;;;4.90;4.37;;;;;;;;;;5075400;28;20453;-50
2022/07/29 02:17:56;;;;;;;4.50;4.10;;;;;;;;;;5075798;28;20498;-52
2022/07/29 02:20:23;;;;;;;5.23;4.70;;;;;;;;;;5037199;28;20805;-52
2022/07/29 02:23:01;;;;;;;5.20;4.37;;;;;;;;;;5048092;28;20898;-50
2022/07/29 02:25:28;;;;;;;5.30;4.80;;;;;;;;;;5075838;28;21045;-53
2022/07/29 02:28:07;;;;;;;4.93;3.97;;;;;;;;;;5059549;28;20943;-51
2022/07/29 02:30:40;;;;;;;7.10;4.60;;;;;;;;;;5076846;28;20437;-52
2022/07/29 02:33:09;;;;;;;4.97;4.27;;;;;;;;;;5053141;28;20452;-51
2022/07/29 02:35:38;;;;;;;4.43;4.03;;;;;;;;;;5065208;28;20505;-51
2022/07/29 02:40:55;;;;;;;6.93;5.03;;;;;;;;;;5073260;28;20475;-58
2022/07/29 02:43:32;;;;;;;5.00;4.57;;;;;;;;;;5035539;28;20433;-56
2022/07/29 02:45:58;;;;;;;4.40;4.00;;;;;;;;;;5081122;28;20434;-53
2022/07/29 02:48:27;;;;;;;4.70;4.30;;;;;;;;;;5058424;28;20547;-51
2022/07/29 02:51:03;;;;;;;4.57;4.00;;;;;;;;;;5082216;28;20445;-52
2022/07/29 02:53:32;;;;;;;4.97;4.10;;;;;;;;;;5055654;28;20444;-54
2022/07/29 02:56:05;;;;;;;4.60;4.20;;;;;;;;;;5060610;28;20448;-52
2022/07/29 02:58:33;;;;;;;4.27;3.97;;;;;;;;;;5035629;28;20502;-52
2022/07/29 03:01:04;;;;;;;5.20;3.90;;;;;;;;;;5058209;28;20531;-52
2022/07/29 03:03:34;;;;;;;4.57;4.17;;;;;;;;;;5057852;28;21040;-52
2022/07/29 03:06:03;;;;;;;4.67;4.37;;;;;;;;;;5064203;28;20508;-53
2022/07/29 03:08:30;;;;;;;5.33;4.77;;;;;;;;;;5052467;28;20432;-51
2022/07/29 03:10:56;;;;;;;5.53;4.53;;;;;;;;;;5058851;28;20460;-51
2022/07/29 03:13:26;;;;;;;5.40;4.90;;;;;;;;;;5052681;28;20998;-51
2022/07/29 03:15:52;;;;;;;4.40;4.00;;;;;;;;;;5048937;28;20457;-53
2022/07/29 03:18:30;;;;;;;6.33;4.33;;;;;;;;;;5043971;28;20436;-54
2022/07/29 03:20:59;;;;;;;5.40;4.90;;;;;;;;;;5061490;28;20479;-52
2022/07/29 03:23:29;;;;;;;5.10;4.53;;;;;;;;;;5034638;28;20875;-52
2022/07/29 03:25:55;;;;;;;4.93;4.33;;;;;;;;;;5065506;28;20440;-52
2022/07/29 03:28:22;;;;;;;6.00;5.40;;;;;;;;;;5075629;28;20431;-56
2022/07/29 03:30:51;;;;;;;4.83;4.40;;;;;;;;;;5065750;28;20476;-61
2022/07/29 03:33:18;;;;;;;6.00;4.83;;;;;;;;;;5055010;28;20513;-52
2022/07/29 03:35:44;;;;;;;5.60;5.10;;;;;;;;;;5063144;28;21066;-51
2022/07/29 03:38:13;;;;;;;6.93;4.77;;;;;;;;;;5059488;28;20848;-52
2022/07/29 03:40:46;;;;;;;13.40;5.40;;;;;;;;;;5062133;28;21241;-53
2022/07/29 03:43:18;;;;;;;5.27;4.77;;;;;;;;;;5057498;28;21084;-52
2022/07/29 03:45:45;;;;;;;5.60;4.30;;;;;;;;;;5080056;28;20441;-54
2022/07/29 03:48:29;;;;;;;5.40;4.50;;;;;;;;;;5059645;28;20613;-53
2022/07/29 03:50:59;;;;;;;6.43;4.13;;;;;;;;;;5082700;28;21151;-52
2022/07/29 03:53:28;;;;;;;5.37;4.70;;;;;;;;;;5080215;28;20439;-52
2022/07/29 03:55:55;;;;;;;5.63;4.73;;;;;;;;;;5048959;28;20947;-52
2022/07/29 03:58:21;;;;;;;5.73;4.50;;;;;;;;;;5063782;28;22568;-53
2022/07/29 04:00:48;;;;;;;4.67;4.17;;;;;;;;;;5069420;28;20472;-51
2022/07/29 04:03:15;;;;;;;5.40;4.70;;;;;;;;;;5034080;28;20634;-50
2022/07/29 04:05:41;;;;;;;5.17;4.70;;;;;;;;;;5066294;28;20447;-50
2022/07/29 04:08:11;;;;;;;6.67;5.20;;;;;;;;;;5047294;28;20980;-53
2022/07/29 04:10:37;;;;;;;8.60;5.10;;;;;;;;;;5085400;28;20443;-51
2022/07/29 04:13:03;;;;;;;5.87;5.27;;;;;;;;;;5045813;28;22996;-52
2022/07/29 04:15:29;;;;;;;6.63;5.27;;;;;;;;;;5078029;28;20444;-52
2022/07/29 04:17:56;;;;;;;5.27;4.60;;;;;;;;;;5079702;28;20428;-52
2022/07/29 04:20:23;;;;;;;5.80;5.00;;;;;;;;;;5086152;28;20472;-55
2022/07/29 04:23:23;;;;;;;4.97;4.47;;;;;;;;;;5057022;28;21191;-52
2022/07/29 04:25:52;;;;;;;5.57;4.93;;;;;;;;;;5084932;28;20440;-51
2022/07/29 04:28:18;;;;;;;6.33;4.80;;;;;;;;;;5077401;28;20554;-49
2022/07/29 04:30:44;;;;;;;7.00;5.13;;;;;;;;;;5080512;28;20428;-51
2022/07/29 04:33:12;;;;;;;5.30;4.80;;;;;;;;;;5039471;28;20452;-53
2022/07/29 04:35:38;;;;;;;4.97;4.27;;;;;;;;;;5084290;28;21118;-51
2022/07/29 04:38:16;;;;;;;4.30;3.90;;;;;;;;;;5070925;28;20513;-52
2022/07/29 04:40:50;;;;;;;6.30;4.37;;;;;;;;;;5060755;28;20472;-52
2022/07/29 04:43:19;;;;;;;5.37;4.47;;;;;;;;;;5059014;28;20990;-52
2022/07/29 04:45:46;;;;;;;5.53;4.40;;;;;;;;;;5068340;28;20451;-53
2022/07/29 04:48:12;;;;;;;5.30;4.80;;;;;;;;;;5052102;28;20459;-52
2022/07/29 04:50:41;;;;;;;4.80;3.90;;;;;;;;;;5079676;28;20456;-52
2022/07/29 04:53:07;;;;;;;4.70;3.80;;;;;;;;;;5072696;28;21332;-51
2022/07/29 04:55:33;;;;;;;4.20;3.80;;;;;;;;;;5078358;28;20478;-50
2022/07/29 04:58:00;;;;;;;4.27;3.37;;;;;;;;;;4997812;28;20452;-52
2022/07/29 05:00:26;;;;;;;6.67;3.80;;;;;;;;;;5077752;28;20476;-51
2022/07/29 05:02:52;;;;;;;3.87;3.50;;;;;;;;;;5052573;28;20824;-50
2022/07/29 05:05:18;;;;;;;4.33;3.93;;;;;;;;;;5075852;28;20432;-53
2022/07/29 05:07:44;;;;;;;4.50;4.10;;;;;;;;;;5053819;28;20433;-52
2022/07/29 05:10:11;;;;;;;4.23;3.83;;;;;;;;;;5073347;28;20433;-51
2022/07/29 05:12:37;;;;;;;4.40;4.00;;;;;;;;;;5052318;28;20216;-52
2022/07/29 05:15:03;;;;;;;4.30;3.90;;;;;;;;;;5069474;28;20461;-51
2022/07/29 05:17:29;;;;;;;4.20;3.80;;;;;;;;;;5050910;28;20954;-52
2022/07/29 05:19:55;;;;;;;4.37;3.50;;;;;;;;;;5077043;28;20555;-53
2022/07/29 05:22:23;;;;;;;4.33;3.93;;;;;;;;;;5060990;28;20949;-52
2022/07/29 05:24:49;;;;;;;4.17;3.40;;;;;;;;;;5065819;28;20432;-51
2022/07/29 05:27:15;;;;;;;3.87;3.57;;;;;;;;;;5039762;28;20452;-52
2022/07/29 05:29:41;;;;;;;4.20;3.80;;;;;;;;;;5074521;28;20444;-52
2022/07/29 05:32:07;;;;;;;4.00;3.70;;;;;;;;;;5020743;28;20451;-52
2022/07/29 05:34:33;;;;;;;3.23;2.93;;;;;;;;;;5078459;28;20437;-51
2022/07/29 05:36:59;;;;;;;3.77;3.37;;;;;;;;;;5081705;28;20505;-52
2022/07/29 05:39:25;;;;;;;3.83;3.43;;;;;;;;;;5062207;28;22045;-51
2022/07/29 05:41:51;;;;;;;4.40;4.00;;;;;;;;;;5060728;28;20950;-52
2022/07/29 05:44:18;;;;;;;5.07;3.40;;;;;;;;;;5077491;28;20433;-51
2022/07/29 05:46:44;;;;;;;4.80;3.00;;;;;;;;;;5042866;28;20425;-51
2022/07/29 05:49:10;;;;;;;4.10;3.50;;;;;;;;;;5078854;28;20501;-51
2022/07/29 05:51:36;;;;;;;4.77;3.33;;;;;;;;;;5051156;28;20447;-51
2022/07/29 05:54:02;;;;;;;4.30;3.80;;;;;;;;;;5077829;28;20187;-52
2022/07/29 05:56:29;;;;;;;3.90;3.50;;;;;;;;;;5066104;28;20437;-51
2022/07/29 05:58:55;;;;;;;3.63;3.33;;;;;;;;;;5048004;28;20452;-52
2022/07/29 06:01:21;;;;;;;3.70;3.40;;;;;;;;;;5063039;28;20477;-51
2022/07/29 06:03:47;;;;;;;4.07;3.67;;;;;;;;;;5031959;28;21058;-51
2022/07/29 06:06:21;;;;;;;5.00;4.40;;;;;;;;;;5067499;28;20448;-53
2022/07/29 06:08:55;;;;;;;3.50;3.20;;;;;;;;;;5054527;28;20416;-51
2022/07/29 06:11:21;;;;;;;4.77;4.37;;;;;;;;;;5061188;28;20445;-51
2022/07/29 06:13:48;;;;;;;6.77;4.30;;;;;;;;;;5047391;28;20645;-51
2022/07/29 06:16:19;;;;;;;4.40;4.00;;;;;;;;;;5058694;28;20700;-51
2022/07/29 06:18:57;;;;;;;5.93;4.33;;;;;;;;;;5064720;28;20448;-52
2022/07/29 06:21:23;;;;;;;4.87;3.83;;;;;;;;;;5070791;28;20480;-51
2022/07/29 06:23:56;;;;;;;4.97;4.50;;;;;;;;;;5088256;28;20499;-55
2022/07/29 06:26:22;;;;;;;6.63;4.03;;;;;;;;;;5045089;28;20436;-52
2022/07/29 06:28:50;;;;;;;4.70;4.30;;;;;;;;;;5080391;28;20433;-51
2022/07/29 06:31:24;;;;;;;5.60;4.00;;;;;;;;;;5057046;28;20441;-54
2022/07/29 06:33:50;;;;;;;4.37;3.97;;;;;;;;;;5074203;28;20635;-52
2022/07/29 06:36:23;;;;;;;5.20;4.70;;;;;;;;;;4992691;28;20582;-52
2022/07/29 06:38:49;;;;;;;5.10;4.20;;;;;;;;;;5076271;28;20441;-52
2022/07/29 06:41:16;;;;;;;4.93;4.53;;;;;;;;;;5048285;28;20630;-51
2022/07/29 06:43:44;;;;;;;5.90;4.77;;;;;;;;;;5049765;28;20444;-52
2022/07/29 06:46:11;;;;;;;5.10;4.30;;;;;;;;;;5033492;28;20804;-54
2022/07/29 06:48:37;;;;;;;5.30;4.80;;;;;;;;;;5075794;28;20424;-51
2022/07/29 06:51:03;;;;;;;4.77;4.33;;;;;;;;;;5032539;28;20464;-50
2022/07/29 06:53:29;;;;;;;4.90;4.40;;;;;;;;;;5077437;28;20436;-52
2022/07/29 06:55:59;;;;;;;4.77;4.37;;;;;;;;;;5068139;28;20440;-53
2022/07/29 06:58:26;;;;;;;5.43;4.60;;;;;;;;;;5078250;28;20471;-50
2022/07/29 07:00:54;;;;;;;5.43;4.90;;;;;;;;;;5019762;28;20469;-52
2022/07/29 07:03:22;;;;;;;4.93;4.43;;;;;;;;;;5041737;28;20445;-52
2022/07/29 07:05:49;;;;;;;4.43;4.03;;;;;;;;;;5051373;28;20433;-52
2022/07/29 07:08:19;;;;;;;4.87;4.47;;;;;;;;;;5074907;28;20455;-52
2022/07/29 07:10:45;;;;;;;5.07;4.20;;;;;;;;;;5051973;28;21886;-52
2022/07/29 07:13:14;;;;;;;6.70;4.87;;;;;;;;;;5060717;28;20507;-52
2022/07/29 07:15:40;;;;;;;4.87;4.37;;;;;;;;;;5039557;28;20453;-53
2022/07/29 07:18:07;;;;;;;5.70;5.10;;;;;;;;;;5079039;28;20420;-54
2022/07/29 07:20:37;;;;;;;4.70;4.30;;;;;;;;;;5029523;28;20481;-53
2022/07/29 07:23:04;;;;;;;5.10;4.60;;;;;;;;;;5073515;28;20528;-51
2022/07/29 07:25:33;;;;;;;5.43;4.93;;;;;;;;;;5031814;28;20449;-50
2022/07/29 07:28:05;;;;;;;5.60;4.50;;;;;;;;;;5077937;28;20425;-51
2022/07/29 07:30:31;;;;;;;7.43;4.60;;;;;;;;;;5042644;28;20463;-53
2022/07/29 07:32:58;;;;;;;5.60;5.10;;;;;;;;;;5056167;28;20425;-54
2022/07/29 07:35:27;;;;;;;5.20;4.70;;;;;;;;;;5049453;28;20445;-55
2022/07/29 07:38:00;;;;;;;5.00;4.50;;;;;;;;;;5043745;28;20494;-51
2022/07/29 07:40:32;;;;;;;4.53;4.13;;;;;;;;;;5060569;28;22482;-51
2022/07/29 07:43:09;;;;;;;6.47;5.10;;;;;;;;;;5053716;28;20441;-51
2022/07/29 07:45:37;;;;;;;5.57;5.00;;;;;;;;;;5003618;28;20460;-53
2022/07/29 07:48:09;;;;;;;5.03;4.63;;;;;;;;;;5075044;28;21071;-51
2022/07/29 07:50:44;;;;;;;5.70;5.30;;;;;;;;;;5078620;28;20452;-51
2022/07/29 07:53:13;;;;;;;7.03;4.80;;;;;;;;;;5074945;28;20965;-53
2022/07/29 07:55:40;;;;;;;6.07;4.73;;;;;;;;;;5055382;28;20504;-51
2022/07/29 07:58:06;;;;;;;6.83;6.13;;;;;;;;;;5079435;28;20451;-52
2022/07/29 08:00:33;;;;;;;5.80;5.30;;;;;;;;;;5061983;28;20472;-51
2022/07/29 08:03:02;;;;;;;6.80;5.37;;;;;;;;;;5075596;28;20425;-51
2022/07/29 08:05:33;;;;;;;5.60;5.10;;;;;;;;;;5051464;28;20441;-52
2022/07/29 08:07:59;;;;;;;5.57;5.10;;;;;;;;;;5065325;28;20931;-51
2022/07/29 08:13:14;;;;;;;6.27;5.23;;;;;;;;;;5041499;28;20456;-51
2022/07/29 08:15:41;;;;;;;5.80;5.30;;;;;;;;;;5057501;28;20476;-52
2022/07/29 08:18:12;;;;;;;7.33;5.67;;;;;;;;;;5026218;28;21194;-51
2022/07/29 08:20:38;;;;;;;5.50;5.00;;;;;;;;;;5048873;28;20474;-52
2022/07/29 08:23:06;;;;;;;5.63;5.23;;;;;;;;;;5053237;28;20849;-51
2022/07/29 08:25:33;;;;;;;6.00;5.40;;;;;;;;;;5058000;28;20439;-52
2022/07/29 08:28:24;;;;;;;6.80;4.73;;;;;;;;;;5047154;28;20440;-52
2022/07/29 08:30:52;;;;;;;5.10;4.70;;;;;;;;;;5057651;28;20436;-52
2022/07/29 08:33:26;;;;;;;6.10;5.07;;;;;;;;;;5060999;28;20485;-51
2022/07/29 08:35:52;;;;;;;5.60;5.10;;;;;;;;;;5081450;28;20973;-52
2022/07/29 08:38:29;;;;;;;5.63;5.10;;;;;;;;;;5073253;28;20824;-51
2022/07/29 08:40:56;;;;;;;6.77;6.07;;;;;;;;;;5060971;28;20468;-52
2022/07/29 08:43:57;;;;;;;6.80;5.23;;;;;;;;;;5078276;28;20433;-51
2022/07/29 08:46:23;;;;;;;5.87;4.70;;;;;;;;;;5061762;28;20459;-51
2022/07/29 08:49:24;;;;;;;6.33;5.80;;;;;;;;;;5041523;28;20430;-51
2022/07/29 08:51:53;;;;;;;5.73;5.13;;;;;;;;;;5036326;28;20461;-53
2022/07/29 08:54:23;;;;;;;6.30;5.70;;;;;;;;;;5029157;28;20429;-53
2022/07/29 08:56:49;;;;;;;6.13;5.63;;;;;;;;;;5030959;28;20988;-52
2022/07/29 08:59:19;;;;;;;7.03;6.00;;;;;;;;;;5041686;28;20457;-52
2022/07/29 09:01:45;;;;;;;7.70;6.00;;;;;;;;;;5035628;28;20805;-52
2022/07/29 09:04:12;;;;;;;6.53;5.97;;;;;;;;;;5016069;28;20445;-52
2022/07/29 09:06:40;;;;;;;6.80;5.97;;;;;;;;;;5044877;28;20447;-52
2022/07/29 09:09:41;;;;;;;6.90;6.30;;;;;;;;;;5000494;28;20461;-53
2022/07/29 09:12:12;;;;;;;5.77;5.37;;;;;;;;;;5039975;28;20482;-53
2022/07/29 09:14:53;;;;;;;6.63;6.03;;;;;;;;;;5046464;28;20499;-53
2022/07/29 09:17:42;;;;;;;7.33;5.83;;;;;;;;;;5064649;28;20461;-52
2022/07/29 09:20:19;;;;;;;6.00;5.50;;;;;;;;;;5024573;28;20471;-52
2022/07/29 09:22:48;;;;;;;5.90;5.30;;;;;;;;;;5052722;28;23161;-49
2022/07/29 09:25:16;;;;;;;6.20;5.60;;;;;;;;;;5021685;28;20421;-54
2022/07/29 09:27:52;;;;;;;6.63;5.90;;;;;;;;;;5041282;28;20441;-51
2022/07/29 09:30:22;;;;;;;7.63;5.57;;;;;;;;;;5037605;28;20795;-53
2022/07/29 09:33:03;;;;;;;6.67;6.10;;;;;;;;;;5034472;28;20893;-53
2022/07/29 09:35:33;;;;;;;7.43;5.90;;;;;;;;;;5020546;28;20457;-52
2022/07/29 09:38:10;;;;;;;7.13;6.53;;;;;;;;;;5037816;28;20708;-51
2022/07/29 09:40:36;;;;;;;7.33;5.17;;;;;;;;;;5014265;28;21037;-52
2022/07/29 09:43:10;;;;;;;6.23;5.23;;;;;;;;;;5037599;28;20434;-51
2022/07/29 09:45:37;;;;;;;8.03;6.10;;;;;;;;;;5039945;28;20446;-52
2022/07/29 09:48:23;;;;;;;6.93;6.23;;;;;;;;;;5051102;28;20437;-50
2022/07/29 09:50:49;;;;;;;7.10;6.40;;;;;;;;;;5027323;28;20473;-51
2022/07/29 09:53:35;;;;;;;6.13;5.63;;;;;;;;;;5052886;28;20450;-51
2022/07/29 09:56:04;;;;;;;10.00;5.53;;;;;;;;;;5002086;28;20438;-52
2022/07/29 09:58:35;;;;;;;6.00;5.20;;;;;;;;;;5048793;28;20522;-51
2022/07/29 10:01:03;;;;;;;6.87;5.90;;;;;;;;;;5012010;28;20520;-51
2022/07/29 10:03:41;;;;;;;7.57;6.60;;;;;;;;;;5049399;28;20918;-51
2022/07/29 10:06:07;;;;;;;7.97;5.93;;;;;;;;;;5047720;28;20476;-52
2022/07/29 10:08:33;;;;;;;11.33;7.00;;;;;;;;;;5054392;28;20446;-52
2022/07/29 10:11:13;;;;;;;6.80;6.20;;;;;;;;;;5044445;28;20418;-52
2022/07/29 10:13:39;;;;;;;6.60;6.00;;;;;;;;;;5056195;28;20448;-49
2022/07/29 10:16:16;;;;;;;6.60;6.10;;;;;;;;;;5041308;28;20941;-51
2022/07/29 10:18:47;;;;;;;6.13;5.63;;;;;;;;;;5052989;28;20563;-50
2022/07/29 10:21:14;;;;;;;6.67;6.07;;;;;;;;;;5001447;28;20505;-52
2022/07/29 10:23:40;;;;;;;6.97;6.33;;;;;;;;;;5045280;28;21571;-52
2022/07/29 10:26:14;;;;;;;7.40;6.80;;;;;;;;;;5028508;28;20441;-52
2022/07/29 10:28:43;;;;;;;8.17;7.07;;;;;;;;;;5057079;28;20516;-51
2022/07/29 10:31:11;;;;;;;13.10;6.13;;;;;;;;;;5036695;28;20480;-51
2022/07/29 10:33:59;;;;;;;8.17;7.47;;;;;;;;;;5047816;28;20445;-52
2022/07/29 10:36:29;;;;;;;9.23;8.20;;;;;;;;;;5028181;28;20440;-52
2022/07/29 10:42:05;;;;;;;8.30;7.50;;;;;;;;;;5044618;28;20561;-52
2022/07/29 10:44:51;;;;;;;6.93;6.33;;;;;;;;;;5064042;28;20980;-52
2022/07/29 10:47:22;;;;;;;8.03;7.43;;;;;;;;;;5057546;28;20448;-51
2022/07/29 10:50:13;;;;;;;7.53;6.93;;;;;;;;;;5026049;28;20659;-51
2022/07/29 10:52:49;;;;;;;8.23;7.43;;;;;;;;;;5047099;28;20434;-52
2022/07/29 10:55:33;;;;;;;7.90;7.10;;;;;;;;;;5037501;28;20742;-53
2022/07/29 10:58:13;;;;;;;8.30;7.40;;;;;;;;;;5062075;28;20433;-51
2022/07/29 11:00:40;;;;;;;7.87;7.10;;;;;;;;;;5023711;28;20999;-52
2022/07/29 11:03:10;;;;;;;7.77;6.97;;;;;;;;;;5027777;28;20522;-52
2022/07/29 11:08:44;;;;;;;8.87;7.97;;;;;;;;;;5043214;28;20507;-52
2022/07/29 11:11:20;;;;;;;14.10;9.90;;;;;;;;;;5028103;28;20484;-53
2022/07/29 11:14:04;;;;;;;12.87;9.50;;;;;;;;;;5051126;28;21111;-53
2022/07/29 11:16:51;;;;;;;12.83;10.90;;;;;;;;;;5053337;28;20452;-51
2022/07/29 11:19:21;;;;;;;14.63;11.07;;;;;;;;;;5014903;28;20451;-52
2022/07/29 11:21:47;;;;;;;11.87;10.67;;;;;;;;;;5049530;28;20476;-52
2022/07/29 11:24:15;;;;;;;14.20;12.80;;;;;;;;;;5039598;28;20438;-53
2022/07/29 11:26:41;;;;;;;15.30;10.50;;;;;;;;;;5052612;28;20652;-51
2022/07/29 11:29:29;;;;;;;12.90;11.43;;;;;;;;;;5022440;28;20435;-51
2022/07/29 11:31:55;;;;;;;12.50;11.27;;;;;;;;;;5043328;28;20435;-52
2022/07/29 11:34:35;;;;;;;12.50;11.20;;;;;;;;;;5029489;28;20802;-52
2022/07/29 11:37:14;;;;;;;13.37;10.10;;;;;;;;;;5030780;28;20430;-55
2022/07/29 11:39:44;;;;;;;12.30;11.10;;;;;;;;;;5028118;28;20581;-51
2022/07/29 11:42:26;;;;;;;12.43;9.93;;;;;;;;;;5037910;28;20484;-51
2022/07/29 11:45:06;;;;;;;11.30;9.97;;;;;;;;;;5031918;28;20472;-51
2022/07/29 11:47:32;;;;;;;11.87;10.47;;;;;;;;;;5039481;28;20504;-51
2022/07/29 11:49:59;;;;;;;10.27;9.37;;;;;;;;;;5037330;28;20445;-52
2022/07/29 11:52:32;;;;;;;12.80;10.70;;;;;;;;;;5055659;28;20429;-52
2022/07/29 11:55:02;;;;;;;10.97;9.93;;;;;;;;;;5020837;28;20494;-51
2022/07/29 11:58:07;;;;;;;16.73;9.80;;;;;;;;;;5034154;28;20532;-51
2022/07/29 12:00:38;;;;;;;10.37;9.33;;;;;;;;;;5056566;28;20494;-50
2022/07/29 12:06:15;;;;;;;10.23;9.17;;;;;;;;;;5048273;28;20463;-52
2022/07/29 12:08:42;;;;;;;10.60;9.50;;;;;;;;;;5010484;28;20510;-56
2022/07/29 12:11:15;;;;;;;10.47;9.57;;;;;;;;;;5055633;28;20451;-52
2022/07/29 12:13:42;;;;;;;9.50;8.57;;;;;;;;;;5038053;28;20533;-54
2022/07/29 12:16:08;;;;;;;11.57;8.57;;;;;;;;;;5040827;28;20446;-51
2022/07/29 12:18:45;;;;;;;9.50;7.93;;;;;;;;;;5029983;28;20429;-54
2022/07/29 12:21:12;;;;;;;8.70;7.80;;;;;;;;;;5036004;28;20472;-52
2022/07/29 12:23:39;;;;;;;10.53;8.80;;;;;;;;;;5045231;28;20498;-52
2022/07/29 12:26:09;;;;;;;8.53;7.73;;;;;;;;;;5058326;28;20434;-53
2022/07/29 12:28:49;;;;;;;9.50;8.47;;;;;;;;;;5040275;28;20436;-53
2022/07/29 12:31:28;;;;;;;8.70;7.67;;;;;;;;;;5048500;28;20425;-51
2022/07/29 12:34:32;;;;;;;8.43;7.73;;;;;;;;;;5039642;28;20470;-52
2022/07/29 12:36:58;;;;;;;9.00;8.10;;;;;;;;;;5058983;28;20940;-52
2022/07/29 12:39:26;;;;;;;10.03;7.30;;;;;;;;;;5049534;28;20526;-51
2022/07/29 12:41:52;;;;;;;9.07;7.90;;;;;;;;;;5048878;28;20477;-52
2022/07/29 12:44:26;;;;;;;11.53;8.83;;;;;;;;;;5042589;28;20464;-52
2022/07/29 12:47:17;;;;;;;11.30;8.90;;;;;;;;;;5052937;28;20446;-53
2022/07/29 12:49:47;;;;;;;9.03;8.27;;;;;;;;;;5050460;28;20499;-51
2022/07/29 12:52:32;;;;;;;13.63;7.97;;;;;;;;;;5036882;28;20537;-50
2022/07/29 12:54:58;;;;;;;9.50;8.70;;;;;;;;;;5025787;28;20523;-51
2022/07/29 12:57:25;;;;;;;10.40;8.77;;;;;;;;;;5055735;28;20923;-52
2022/07/29 13:00:07;;;;;;;8.43;7.70;;;;;;;;;;5045031;28;20560;-51
2022/07/29 13:02:35;;;;;;;8.33;7.60;;;;;;;;;;5056852;28;20441;-52
2022/07/29 13:05:07;;;;;;;9.90;8.90;;;;;;;;;;5036060;28;20429;-51
2022/07/29 13:07:35;;;;;;;7.77;7.07;;;;;;;;;;5056903;28;20437;-50
2022/07/29 13:10:21;;;;;;;10.00;9.10;;;;;;;;;;5027185;28;20826;-51
2022/07/29 13:13:07;;;;;;;10.77;9.07;;;;;;;;;;5057294;28;20537;-51
2022/07/29 13:15:35;;;;;;;9.50;8.60;;;;;;;;;;5041173;28;21902;-53
2022/07/29 13:18:01;;;;;;;11.03;8.87;;;;;;;;;;5055119;28;20449;-52
2022/07/29 13:20:31;;;;;;;10.10;9.13;;;;;;;;;;5057461;28;20562;-51
2022/07/29 13:22:58;;;;;;;10.90;9.47;;;;;;;;;;5060749;28;20972;-51
2022/07/29 13:25:28;;;;;;;8.63;7.73;;;;;;;;;;5035171;28;21149;-51
2022/07/29 13:27:54;;;;;;;10.83;9.70;;;;;;;;;;5057479;28;20429;-53
2022/07/29 13:30:25;;;;;;;8.10;7.40;;;;;;;;;;5039291;28;20480;-51
2022/07/29 13:32:51;;;;;;;8.53;7.57;;;;;;;;;;5057286;28;20440;-52
2022/07/29 13:35:23;;;;;;;7.50;6.90;;;;;;;;;;5043726;28;20531;-51
2022/07/29 13:37:52;;;;;;;8.43;7.73;;;;;;;;;;5062692;28;20440;-52
2022/07/29 13:40:40;;;;;;;8.87;8.10;;;;;;;;;;5023279;28;20465;-53
2022/07/29 13:43:09;;;;;;;10.47;7.43;;;;;;;;;;5061207;28;20434;-51
2022/07/29 13:45:36;;;;;;;9.07;8.37;;;;;;;;;;5046639;28;20444;-52
2022/07/29 13:48:02;;;;;;;7.23;6.63;;;;;;;;;;5046413;28;20545;-52
2022/07/29 13:50:28;;;;;;;8.57;7.80;;;;;;;;;;5056443;28;20446;-52
2022/07/29 13:52:55;;;;;;;9.27;8.37;;;;;;;;;;5059067;28;20448;-51
2022/07/29 13:55:34;;;;;;;7.97;7.10;;;;;;;;;;5054374;28;20179;-52
2022/07/29 13:58:02;;;;;;;9.53;8.60;;;;;;;;;;5055227;28;20446;-52
2022/07/29 14:00:28;;;;;;;6.97;6.37;;;;;;;;;;5059462;28;20979;-52
2022/07/29 14:02:54;;;;;;;8.90;8.00;;;;;;;;;;5058498;28;21527;-52
2022/07/29 14:05:20;;;;;;;8.27;7.50;;;;;;;;;;5032364;28;20561;-52
2022/07/29 14:07:47;;;;;;;9.13;7.87;;;;;;;;;;5059627;28;20923;-51
2022/07/29 14:10:13;;;;;;;9.10;6.60;;;;;;;;;;5014626;28;20618;-52
2022/07/29 14:12:41;;;;;;;7.70;7.07;;;;;;;;;;5062057;28;20428;-52
2022/07/29 14:15:07;;;;;;;8.73;7.30;;;;;;;;;;5029419;28;21150;-56
2022/07/29 14:17:34;;;;;;;10.17;8.40;;;;;;;;;;5061691;28;20849;-51
2022/07/29 14:20:00;;;;;;;9.37;8.40;;;;;;;;;;5039745;28;20472;-51
2022/07/29 14:22:29;;;;;;;8.83;8.10;;;;;;;;;;5049677;28;20433;-52
2022/07/29 14:24:56;;;;;;;8.13;7.33;;;;;;;;;;5042323;28;20776;-52
2022/07/29 14:27:22;;;;;;;11.53;8.40;;;;;;;;;;5042057;28;20440;-52
2022/07/29 14:29:50;;;;;;;8.73;7.93;;;;;;;;;;5026097;28;20215;-51
2022/07/29 14:32:16;;;;;;;14.13;8.90;;;;;;;;;;5050353;28;20438;-50
2022/07/29 14:34:53;;;;;;;8.53;7.83;;;;;;;;;;5046091;28;20555;-52
2022/07/29 14:37:28;;;;;;;8.43;7.63;;;;;;;;;;5039766;28;20449;-51
2022/07/29 14:40:19;;;;;;;11.37;7.60;;;;;;;;;;5040273;28;20549;-52
2022/07/29 14:42:50;;;;;;;10.80;8.40;;;;;;;;;;5050963;28;20516;-52
2022/07/29 14:45:51;;;;;;;8.00;7.17;;;;;;;;;;5035915;28;21134;-53
2022/07/29 14:48:23;;;;;;;9.60;7.43;;;;;;;;;;5025613;28;20544;-52
2022/07/29 14:50:49;;;;;;;8.23;7.40;;;;;;;;;;5034908;28;20449;-50
2022/07/29 14:53:15;;;;;;;10.40;7.43;;;;;;;;;;5050802;28;20472;-51
2022/07/29 14:55:41;;;;;;;7.80;7.10;;;;;;;;;;5026752;28;20184;-51
2022/07/29 14:58:07;;;;;;;8.40;7.60;;;;;;;;;;5040819;28;20445;-52
2022/07/29 15:00:34;;;;;;;8.10;7.30;;;;;;;;;;5037059;28;20547;-52
2022/07/29 15:03:00;;;;;;;8.20;6.97;;;;;;;;;;5039712;28;20922;-52
2022/07/29 15:05:26;;;;;;;9.20;7.67;;;;;;;;;;5032434;28;20524;-50
2022/07/29 15:07:53;;;;;;;9.47;8.53;;;;;;;;;;5055964;28;20457;-52
2022/07/29 15:10:19;;;;;;;7.50;6.90;;;;;;;;;;5049610;28;20444;-52
2022/07/29 15:12:45;;;;;;;8.20;7.47;;;;;;;;;;5051839;28;20436;-51
2022/07/29 15:15:11;;;;;;;8.87;7.97;;;;;;;;;;5023030;28;20437;-53